sensor_id;sensor_type;location;lat;lon;timestamp;P1;durP1;ratioP1;P2;durP2;ratioP2
30723;SDS011;17473;52.286;20.930;2024-03-17T00:02:15;6.87;;;1.90;;
30723;SDS011;17473;52.286;20.930;2024-03-17T00:04:41;5.37;;;1.90;;
30723;SDS011;17473;52.286;20.930;2024-03-17T00:07:08;9.63;;;2.20;;
30723;SDS011;17473;52.286;20.930;2024-03-17T00:09:34;5.90;;;2.60;;
30723;SDS011;17473;52.286;20.930;2024-03-17T00:12:00;6.93;;;2.03;;
30723;SDS011;17473;52.286;20.930;2024-03-17T00:14:26;10.23;;;2.20;;
30723;SDS011;17473;52.286;20.930;2024-03-17T00:16:55;13.10;;;2.87;;
30723;SDS011;17473;52.286;20.930;2024-03-17T00:19:21;10.50;;;2.50;;
30723;SDS011;17473;52.286;20.930;2024-03-17T00:21:49;5.97;;;1.90;;
30723;SDS011;17473;52.286;20.930;2024-03-17T00:24:19;10.67;;;2.87;;
30723;SDS011;17473;52.286;20.930;2024-03-17T00:26:45;7.90;;;1.77;;
30723;SDS011;17473;52.286;20.930;2024-03-17T00:29:12;8.00;;;2.13;;
30723;SDS011;17473;52.286;20.930;2024-03-17T00:31:39;7.47;;;2.20;;
30723;SDS011;17473;52.286;20.930;2024-03-17T00:34:06;7.23;;;2.20;;
30723;SDS011;17473;52.286;20.930;2024-03-17T00:36:33;9.07;;;2.20;;
30723;SDS011;17473;52.286;20.930;2024-03-17T00:38:59;10.87;;;3.33;;
30723;SDS011;17473;52.286;20.930;2024-03-17T00:41:25;11.13;;;4.03;;
30723;SDS011;17473;52.286;20.930;2024-03-17T00:43:52;10.90;;;5.37;;
30723;SDS011;17473;52.286;20.930;2024-03-17T00:46:21;14.07;;;5.00;;
30723;SDS011;17473;52.286;20.930;2024-03-17T00:48:48;9.93;;;3.20;;
30723;SDS011;17473;52.286;20.930;2024-03-17T00:51:14;6.97;;;2.23;;
30723;SDS011;17473;52.286;20.930;2024-03-17T00:53:41;9.90;;;2.20;;
30723;SDS011;17473;52.286;20.930;2024-03-17T00:56:08;12.07;;;2.50;;
30723;SDS011;17473;52.286;20.930;2024-03-17T00:58:34;8.60;;;2.20;;
30723;SDS011;17473;52.286;20.930;2024-03-17T01:01:00;9.80;;;2.50;;
30723;SDS011;17473;52.286;20.930;2024-03-17T01:03:27;8.20;;;2.40;;
30723;SDS011;17473;52.286;20.930;2024-03-17T01:05:53;11.57;;;3.47;;
30723;SDS011;17473;52.286;20.930;2024-03-17T01:08:19;7.30;;;2.43;;
30723;SDS011;17473;52.286;20.930;2024-03-17T01:10:46;8.43;;;2.10;;
30723;SDS011;17473;52.286;20.930;2024-03-17T01:13:16;12.03;;;2.67;;
30723;SDS011;17473;52.286;20.930;2024-03-17T01:15:43;10.53;;;2.40;;
30723;SDS011;17473;52.286;20.930;2024-03-17T01:18:09;5.90;;;1.77;;
30723;SDS011;17473;52.286;20.930;2024-03-17T01:20:36;12.43;;;2.33;;
30723;SDS011;17473;52.286;20.930;2024-03-17T01:23:04;10.00;;;2.27;;
30723;SDS011;17473;52.286;20.930;2024-03-17T01:25:30;8.70;;;2.47;;
30723;SDS011;17473;52.286;20.930;2024-03-17T01:28:01;9.97;;;2.17;;
30723;SDS011;17473;52.286;20.930;2024-03-17T01:30:31;8.27;;;2.50;;
30723;SDS011;17473;52.286;20.930;2024-03-17T01:32:59;11.63;;;2.40;;
30723;SDS011;17473;52.286;20.930;2024-03-17T01:35:27;14.27;;;2.80;;
30723;SDS011;17473;52.286;20.930;2024-03-17T01:37:53;12.93;;;3.07;;
30723;SDS011;17473;52.286;20.930;2024-03-17T01:40:19;20.27;;;2.70;;
30723;SDS011;17473;52.286;20.930;2024-03-17T01:42:46;19.30;;;2.30;;
30723;SDS011;17473;52.286;20.930;2024-03-17T01:45:28;10.27;;;2.50;;
30723;SDS011;17473;52.286;20.930;2024-03-17T01:48:01;11.37;;;2.77;;
30723;SDS011;17473;52.286;20.930;2024-03-17T01:50:33;9.53;;;2.30;;
30723;SDS011;17473;52.286;20.930;2024-03-17T01:53:04;13.30;;;2.73;;
30723;SDS011;17473;52.286;20.930;2024-03-17T01:55:32;8.23;;;2.20;;
30723;SDS011;17473;52.286;20.930;2024-03-17T01:58:02;12.00;;;2.17;;
30723;SDS011;17473;52.286;20.930;2024-03-17T02:00:32;9.60;;;2.30;;
30723;SDS011;17473;52.286;20.930;2024-03-17T02:03:04;12.03;;;2.67;;
30723;SDS011;17473;52.286;20.930;2024-03-17T02:05:32;14.83;;;2.93;;
30723;SDS011;17473;52.286;20.930;2024-03-17T02:07:59;8.43;;;2.43;;
30723;SDS011;17473;52.286;20.930;2024-03-17T02:10:26;14.50;;;2.63;;
30723;SDS011;17473;52.286;20.930;2024-03-17T02:12:52;7.50;;;2.00;;
30723;SDS011;17473;52.286;20.930;2024-03-17T02:15:18;11.10;;;2.70;;
30723;SDS011;17473;52.286;20.930;2024-03-17T02:17:45;8.60;;;2.43;;
30723;SDS011;17473;52.286;20.930;2024-03-17T02:20:11;18.03;;;4.87;;
30723;SDS011;17473;52.286;20.930;2024-03-17T02:22:37;6.90;;;2.30;;
30723;SDS011;17473;52.286;20.930;2024-03-17T02:25:03;9.83;;;2.40;;
30723;SDS011;17473;52.286;20.930;2024-03-17T02:27:33;9.27;;;2.73;;
30723;SDS011;17473;52.286;20.930;2024-03-17T02:30:03;8.00;;;2.07;;
30723;SDS011;17473;52.286;20.930;2024-03-17T02:32:35;11.30;;;2.30;;
30723;SDS011;17473;52.286;20.930;2024-03-17T02:35:01;9.43;;;2.60;;
30723;SDS011;17473;52.286;20.930;2024-03-17T02:37:28;11.33;;;2.13;;
30723;SDS011;17473;52.286;20.930;2024-03-17T02:39:54;9.77;;;1.80;;
30723;SDS011;17473;52.286;20.930;2024-03-17T02:42:20;10.97;;;2.77;;
30723;SDS011;17473;52.286;20.930;2024-03-17T02:44:46;14.93;;;2.10;;
30723;SDS011;17473;52.286;20.930;2024-03-17T02:47:12;7.60;;;2.03;;
30723;SDS011;17473;52.286;20.930;2024-03-17T02:49:40;14.77;;;2.27;;
30723;SDS011;17473;52.286;20.930;2024-03-17T02:52:08;10.20;;;2.30;;
30723;SDS011;17473;52.286;20.930;2024-03-17T02:54:37;11.20;;;2.43;;
30723;SDS011;17473;52.286;20.930;2024-03-17T02:57:05;8.03;;;2.37;;
30723;SDS011;17473;52.286;20.930;2024-03-17T02:59:32;12.10;;;2.23;;
30723;SDS011;17473;52.286;20.930;2024-03-17T03:01:59;10.93;;;2.33;;
30723;SDS011;17473;52.286;20.930;2024-03-17T03:04:26;10.10;;;2.20;;
30723;SDS011;17473;52.286;20.930;2024-03-17T03:06:53;14.77;;;2.23;;
30723;SDS011;17473;52.286;20.930;2024-03-17T03:09:19;12.53;;;2.67;;
30723;SDS011;17473;52.286;20.930;2024-03-17T03:11:56;9.43;;;1.80;;
30723;SDS011;17473;52.286;20.930;2024-03-17T03:14:26;10.73;;;2.20;;
30723;SDS011;17473;52.286;20.930;2024-03-17T03:16:53;8.90;;;2.47;;
30723;SDS011;17473;52.286;20.930;2024-03-17T03:19:19;11.30;;;2.83;;
30723;SDS011;17473;52.286;20.930;2024-03-17T03:21:45;10.40;;;2.73;;
30723;SDS011;17473;52.286;20.930;2024-03-17T03:24:11;9.43;;;2.10;;
30723;SDS011;17473;52.286;20.930;2024-03-17T03:26:41;8.27;;;2.13;;
30723;SDS011;17473;52.286;20.930;2024-03-17T03:29:07;10.03;;;2.63;;
30723;SDS011;17473;52.286;20.930;2024-03-17T03:31:35;9.87;;;2.40;;
30723;SDS011;17473;52.286;20.930;2024-03-17T03:34:01;9.50;;;2.40;;
30723;SDS011;17473;52.286;20.930;2024-03-17T03:36:28;8.17;;;2.63;;
30723;SDS011;17473;52.286;20.930;2024-03-17T03:38:55;8.73;;;2.53;;
30723;SDS011;17473;52.286;20.930;2024-03-17T03:41:22;14.77;;;2.63;;
30723;SDS011;17473;52.286;20.930;2024-03-17T03:43:49;14.17;;;2.40;;
30723;SDS011;17473;52.286;20.930;2024-03-17T03:46:16;9.63;;;2.40;;
30723;SDS011;17473;52.286;20.930;2024-03-17T03:48:43;11.10;;;2.47;;
30723;SDS011;17473;52.286;20.930;2024-03-17T03:51:09;12.27;;;2.17;;
30723;SDS011;17473;52.286;20.930;2024-03-17T03:53:36;6.43;;;2.90;;
30723;SDS011;17473;52.286;20.930;2024-03-17T03:56:03;9.20;;;2.80;;
30723;SDS011;17473;52.286;20.930;2024-03-17T03:58:33;11.07;;;2.50;;
30723;SDS011;17473;52.286;20.930;2024-03-17T04:01:07;8.10;;;2.60;;
30723;SDS011;17473;52.286;20.930;2024-03-17T04:03:34;12.63;;;3.27;;
30723;SDS011;17473;52.286;20.930;2024-03-17T04:06:03;16.80;;;2.83;;
30723;SDS011;17473;52.286;20.930;2024-03-17T04:08:35;10.23;;;3.10;;
30723;SDS011;17473;52.286;20.930;2024-03-17T04:11:07;14.40;;;3.27;;
30723;SDS011;17473;52.286;20.930;2024-03-17T04:13:34;12.10;;;3.17;;
30723;SDS011;17473;52.286;20.930;2024-03-17T04:16:00;11.90;;;2.50;;
30723;SDS011;17473;52.286;20.930;2024-03-17T04:18:31;8.93;;;3.10;;
30723;SDS011;17473;52.286;20.930;2024-03-17T04:21:00;7.97;;;2.63;;
30723;SDS011;17473;52.286;20.930;2024-03-17T04:23:32;8.97;;;2.37;;
30723;SDS011;17473;52.286;20.930;2024-03-17T04:25:59;9.13;;;2.67;;
30723;SDS011;17473;52.286;20.930;2024-03-17T04:28:26;11.90;;;2.93;;
30723;SDS011;17473;52.286;20.930;2024-03-17T04:30:53;18.57;;;3.50;;
30723;SDS011;17473;52.286;20.930;2024-03-17T04:33:27;15.87;;;3.63;;
30723;SDS011;17473;52.286;20.930;2024-03-17T04:35:53;11.87;;;2.87;;
30723;SDS011;17473;52.286;20.930;2024-03-17T04:38:19;12.90;;;2.53;;
30723;SDS011;17473;52.286;20.930;2024-03-17T04:40:45;22.47;;;3.27;;
30723;SDS011;17473;52.286;20.930;2024-03-17T04:43:11;7.97;;;2.17;;
30723;SDS011;17473;52.286;20.930;2024-03-17T04:45:37;17.40;;;4.57;;
30723;SDS011;17473;52.286;20.930;2024-03-17T04:48:03;8.67;;;2.33;;
30723;SDS011;17473;52.286;20.930;2024-03-17T04:50:30;11.73;;;2.93;;
30723;SDS011;17473;52.286;20.930;2024-03-17T04:52:58;10.87;;;2.77;;
30723;SDS011;17473;52.286;20.930;2024-03-17T04:55:25;9.03;;;2.80;;
30723;SDS011;17473;52.286;20.930;2024-03-17T04:57:51;12.27;;;2.80;;
30723;SDS011;17473;52.286;20.930;2024-03-17T05:00:17;10.63;;;2.40;;
30723;SDS011;17473;52.286;20.930;2024-03-17T05:02:47;8.97;;;2.67;;
30723;SDS011;17473;52.286;20.930;2024-03-17T05:05:13;9.33;;;2.90;;
30723;SDS011;17473;52.286;20.930;2024-03-17T05:07:39;8.63;;;2.50;;
30723;SDS011;17473;52.286;20.930;2024-03-17T05:10:06;15.17;;;4.53;;
30723;SDS011;17473;52.286;20.930;2024-03-17T05:12:32;13.57;;;4.47;;
30723;SDS011;17473;52.286;20.930;2024-03-17T05:14:58;18.10;;;3.50;;
30723;SDS011;17473;52.286;20.930;2024-03-17T05:17:25;14.33;;;3.03;;
30723;SDS011;17473;52.286;20.930;2024-03-17T05:19:51;11.20;;;2.43;;
30723;SDS011;17473;52.286;20.930;2024-03-17T05:22:17;11.83;;;2.87;;
30723;SDS011;17473;52.286;20.930;2024-03-17T05:24:43;10.87;;;2.77;;
30723;SDS011;17473;52.286;20.930;2024-03-17T05:27:09;8.33;;;2.60;;
30723;SDS011;17473;52.286;20.930;2024-03-17T05:29:35;12.37;;;3.50;;
30723;SDS011;17473;52.286;20.930;2024-03-17T05:32:03;14.63;;;3.63;;
30723;SDS011;17473;52.286;20.930;2024-03-17T05:34:30;9.70;;;3.43;;
30723;SDS011;17473;52.286;20.930;2024-03-17T05:36:57;10.87;;;3.60;;
30723;SDS011;17473;52.286;20.930;2024-03-17T05:39:23;8.03;;;3.10;;
30723;SDS011;17473;52.286;20.930;2024-03-17T05:41:49;11.27;;;2.97;;
30723;SDS011;17473;52.286;20.930;2024-03-17T05:44:16;9.23;;;3.20;;
30723;SDS011;17473;52.286;20.930;2024-03-17T05:46:43;9.97;;;2.77;;
30723;SDS011;17473;52.286;20.930;2024-03-17T05:49:09;11.37;;;3.10;;
30723;SDS011;17473;52.286;20.930;2024-03-17T05:51:35;9.53;;;2.87;;
30723;SDS011;17473;52.286;20.930;2024-03-17T05:54:02;8.23;;;3.27;;
30723;SDS011;17473;52.286;20.930;2024-03-17T05:56:28;9.37;;;2.80;;
30723;SDS011;17473;52.286;20.930;2024-03-17T05:58:54;14.37;;;4.27;;
30723;SDS011;17473;52.286;20.930;2024-03-17T06:01:20;8.13;;;3.10;;
30723;SDS011;17473;52.286;20.930;2024-03-17T06:03:47;11.23;;;4.03;;
30723;SDS011;17473;52.286;20.930;2024-03-17T06:06:14;14.83;;;5.60;;
30723;SDS011;17473;52.286;20.930;2024-03-17T06:08:40;12.97;;;4.13;;
30723;SDS011;17473;52.286;20.930;2024-03-17T06:11:06;13.57;;;3.73;;
30723;SDS011;17473;52.286;20.930;2024-03-17T06:13:33;8.63;;;3.27;;
30723;SDS011;17473;52.286;20.930;2024-03-17T06:16:01;11.07;;;3.30;;
30723;SDS011;17473;52.286;20.930;2024-03-17T06:18:30;8.90;;;3.03;;
30723;SDS011;17473;52.286;20.930;2024-03-17T06:20:56;14.53;;;4.20;;
30723;SDS011;17473;52.286;20.930;2024-03-17T06:23:25;9.10;;;3.53;;
30723;SDS011;17473;52.286;20.930;2024-03-17T06:25:54;5.83;;;2.90;;
30723;SDS011;17473;52.286;20.930;2024-03-17T06:28:21;10.00;;;3.13;;
30723;SDS011;17473;52.286;20.930;2024-03-17T06:30:55;10.63;;;3.50;;
30723;SDS011;17473;52.286;20.930;2024-03-17T06:33:25;14.77;;;3.57;;
30723;SDS011;17473;52.286;20.930;2024-03-17T06:35:53;9.67;;;3.27;;
30723;SDS011;17473;52.286;20.930;2024-03-17T06:38:20;11.33;;;2.90;;
30723;SDS011;17473;52.286;20.930;2024-03-17T06:40:49;5.93;;;2.17;;
30723;SDS011;17473;52.286;20.930;2024-03-17T06:43:16;15.30;;;3.30;;
30723;SDS011;17473;52.286;20.930;2024-03-17T06:45:43;10.60;;;3.40;;
30723;SDS011;17473;52.286;20.930;2024-03-17T06:48:18;11.50;;;3.00;;
30723;SDS011;17473;52.286;20.930;2024-03-17T06:50:44;12.03;;;3.13;;
30723;SDS011;17473;52.286;20.930;2024-03-17T06:53:10;9.53;;;2.43;;
30723;SDS011;17473;52.286;20.930;2024-03-17T06:55:36;8.00;;;3.63;;
30723;SDS011;17473;52.286;20.930;2024-03-17T06:58:02;10.13;;;3.20;;
30723;SDS011;17473;52.286;20.930;2024-03-17T07:00:28;9.00;;;3.10;;
30723;SDS011;17473;52.286;20.930;2024-03-17T07:02:54;8.90;;;2.50;;
30723;SDS011;17473;52.286;20.930;2024-03-17T07:05:21;13.03;;;3.43;;
30723;SDS011;17473;52.286;20.930;2024-03-17T07:07:47;11.07;;;2.70;;
30723;SDS011;17473;52.286;20.930;2024-03-17T07:10:13;11.37;;;3.20;;
30723;SDS011;17473;52.286;20.930;2024-03-17T07:12:41;7.73;;;3.00;;
30723;SDS011;17473;52.286;20.930;2024-03-17T07:15:07;6.87;;;2.23;;
30723;SDS011;17473;52.286;20.930;2024-03-17T07:17:36;6.07;;;2.07;;
30723;SDS011;17473;52.286;20.930;2024-03-17T07:20:02;7.03;;;2.63;;
30723;SDS011;17473;52.286;20.930;2024-03-17T07:22:33;7.80;;;2.27;;
30723;SDS011;17473;52.286;20.930;2024-03-17T07:24:59;10.67;;;3.50;;
30723;SDS011;17473;52.286;20.930;2024-03-17T07:27:28;14.97;;;3.50;;
30723;SDS011;17473;52.286;20.930;2024-03-17T07:29:54;9.67;;;2.70;;
30723;SDS011;17473;52.286;20.930;2024-03-17T07:32:21;9.03;;;2.33;;
30723;SDS011;17473;52.286;20.930;2024-03-17T07:34:48;7.87;;;2.37;;
30723;SDS011;17473;52.286;20.930;2024-03-17T07:37:15;13.07;;;2.80;;
30723;SDS011;17473;52.286;20.930;2024-03-17T07:39:42;10.20;;;2.57;;
30723;SDS011;17473;52.286;20.930;2024-03-17T07:42:08;8.40;;;2.50;;
30723;SDS011;17473;52.286;20.930;2024-03-17T07:44:34;6.20;;;2.10;;
30723;SDS011;17473;52.286;20.930;2024-03-17T07:47:00;8.97;;;2.40;;
30723;SDS011;17473;52.286;20.930;2024-03-17T07:49:29;10.07;;;2.67;;
30723;SDS011;17473;52.286;20.930;2024-03-17T07:51:56;9.90;;;2.67;;
30723;SDS011;17473;52.286;20.930;2024-03-17T07:54:23;11.20;;;2.83;;
30723;SDS011;17473;52.286;20.930;2024-03-17T07:56:52;5.87;;;2.30;;
30723;SDS011;17473;52.286;20.930;2024-03-17T07:59:19;7.80;;;2.40;;
30723;SDS011;17473;52.286;20.930;2024-03-17T08:01:45;9.33;;;3.47;;
30723;SDS011;17473;52.286;20.930;2024-03-17T08:04:11;7.50;;;2.13;;
30723;SDS011;17473;52.286;20.930;2024-03-17T08:06:41;10.23;;;2.80;;
30723;SDS011;17473;52.286;20.930;2024-03-17T08:09:07;9.13;;;2.47;;
30723;SDS011;17473;52.286;20.930;2024-03-17T08:11:34;6.70;;;2.40;;
30723;SDS011;17473;52.286;20.930;2024-03-17T08:14:01;8.98;;;2.33;;
30723;SDS011;17473;52.286;20.930;2024-03-17T08:16:27;11.17;;;2.50;;
30723;SDS011;17473;52.286;20.930;2024-03-17T08:18:55;9.50;;;2.43;;
30723;SDS011;17473;52.286;20.930;2024-03-17T08:21:22;13.63;;;2.77;;
30723;SDS011;17473;52.286;20.930;2024-03-17T08:23:48;9.47;;;2.67;;
30723;SDS011;17473;52.286;20.930;2024-03-17T08:26:14;10.70;;;2.78;;
30723;SDS011;17473;52.286;20.930;2024-03-17T08:28:41;6.05;;;2.50;;
30723;SDS011;17473;52.286;20.930;2024-03-17T08:31:07;11.30;;;2.97;;
30723;SDS011;17473;52.286;20.930;2024-03-17T08:33:33;7.03;;;2.10;;
30723;SDS011;17473;52.286;20.930;2024-03-17T08:38:30;7.30;;;1.90;;
30723;SDS011;17473;52.286;20.930;2024-03-17T08:41:02;9.00;;;2.30;;
30723;SDS011;17473;52.286;20.930;2024-03-17T08:43:34;8.00;;;2.60;;
30723;SDS011;17473;52.286;20.930;2024-03-17T08:46:04;6.00;;;2.37;;
30723;SDS011;17473;52.286;20.930;2024-03-17T08:48:37;6.00;;;2.20;;
30723;SDS011;17473;52.286;20.930;2024-03-17T08:51:07;6.53;;;2.50;;
30723;SDS011;17473;52.286;20.930;2024-03-17T08:53:34;6.00;;;2.37;;
30723;SDS011;17473;52.286;20.930;2024-03-17T08:56:00;8.00;;;2.30;;
30723;SDS011;17473;52.286;20.930;2024-03-17T08:58:29;4.90;;;2.07;;
30723;SDS011;17473;52.286;20.930;2024-03-17T09:00:55;12.83;;;2.50;;
30723;SDS011;17473;52.286;20.930;2024-03-17T09:03:21;9.43;;;2.77;;
30723;SDS011;17473;52.286;20.930;2024-03-17T09:05:48;10.40;;;3.47;;
30723;SDS011;17473;52.286;20.930;2024-03-17T09:08:19;5.67;;;2.07;;
30723;SDS011;17473;52.286;20.930;2024-03-17T09:10:47;7.07;;;2.30;;
30723;SDS011;17473;52.286;20.930;2024-03-17T09:13:18;6.17;;;2.60;;
30723;SDS011;17473;52.286;20.930;2024-03-17T09:15:57;9.57;;;2.87;;
30723;SDS011;17473;52.286;20.930;2024-03-17T09:18:30;4.90;;;1.77;;
30723;SDS011;17473;52.286;20.930;2024-03-17T09:23:29;5.40;;;1.80;;
30723;SDS011;17473;52.286;20.930;2024-03-17T09:26:03;8.73;;;2.10;;
30723;SDS011;17473;52.286;20.930;2024-03-17T09:28:34;4.40;;;2.20;;
30723;SDS011;17473;52.286;20.930;2024-03-17T09:31:01;7.10;;;2.20;;
30723;SDS011;17473;52.286;20.930;2024-03-17T09:33:30;4.57;;;1.77;;
30723;SDS011;17473;52.286;20.930;2024-03-17T09:35:57;2.60;;;1.50;;
30723;SDS011;17473;52.286;20.930;2024-03-17T09:38:29;5.93;;;1.63;;
30723;SDS011;17473;52.286;20.930;2024-03-17T09:40:55;3.50;;;1.60;;
30723;SDS011;17473;52.286;20.930;2024-03-17T09:43:28;3.23;;;1.87;;
30723;SDS011;17473;52.286;20.930;2024-03-17T09:46:03;6.70;;;2.00;;
30723;SDS011;17473;52.286;20.930;2024-03-17T09:48:30;2.40;;;1.67;;
30723;SDS011;17473;52.286;20.930;2024-03-17T09:50:57;6.30;;;2.07;;
30723;SDS011;17473;52.286;20.930;2024-03-17T09:53:29;3.60;;;1.63;;
30723;SDS011;17473;52.286;20.930;2024-03-17T09:56:01;5.47;;;1.70;;
30723;SDS011;17473;52.286;20.930;2024-03-17T09:58:33;12.93;;;1.73;;
30723;SDS011;17473;52.286;20.930;2024-03-17T10:01:00;7.00;;;1.77;;
30723;SDS011;17473;52.286;20.930;2024-03-17T10:03:39;7.70;;;1.87;;
30723;SDS011;17473;52.286;20.930;2024-03-17T10:06:29;5.10;;;1.63;;
30723;SDS011;17473;52.286;20.930;2024-03-17T10:08:57;6.10;;;2.13;;
30723;SDS011;17473;52.286;20.930;2024-03-17T10:11:35;5.87;;;2.40;;
30723;SDS011;17473;52.286;20.930;2024-03-17T10:14:03;3.73;;;1.60;;
30723;SDS011;17473;52.286;20.930;2024-03-17T10:16:37;3.67;;;1.30;;
30723;SDS011;17473;52.286;20.930;2024-03-17T10:19:13;4.23;;;1.90;;
30723;SDS011;17473;52.286;20.930;2024-03-17T10:21:46;6.33;;;1.90;;
30723;SDS011;17473;52.286;20.930;2024-03-17T10:24:23;3.57;;;1.30;;
30723;SDS011;17473;52.286;20.930;2024-03-17T10:26:55;6.40;;;2.13;;
30723;SDS011;17473;52.286;20.930;2024-03-17T10:31:58;3.40;;;1.40;;
30723;SDS011;17473;52.286;20.930;2024-03-17T10:34:29;2.87;;;1.43;;
30723;SDS011;17473;52.286;20.930;2024-03-17T10:37:13;8.80;;;1.60;;
30723;SDS011;17473;52.286;20.930;2024-03-17T10:39:43;6.10;;;1.97;;
30723;SDS011;17473;52.286;20.930;2024-03-17T10:42:10;5.03;;;1.70;;
30723;SDS011;17473;52.286;20.930;2024-03-17T10:44:39;5.43;;;1.93;;
30723;SDS011;17473;52.286;20.930;2024-03-17T10:47:17;4.97;;;1.53;;
30723;SDS011;17473;52.286;20.930;2024-03-17T10:49:51;4.20;;;1.70;;
30723;SDS011;17473;52.286;20.930;2024-03-17T10:52:21;2.60;;;1.70;;
30723;SDS011;17473;52.286;20.930;2024-03-17T10:54:52;8.00;;;2.37;;
30723;SDS011;17473;52.286;20.930;2024-03-17T11:00:02;5.63;;;1.80;;
30723;SDS011;17473;52.286;20.930;2024-03-17T11:02:31;4.70;;;1.60;;
30723;SDS011;17473;52.286;20.930;2024-03-17T11:04:59;4.20;;;1.37;;
30723;SDS011;17473;52.286;20.930;2024-03-17T11:07:46;3.37;;;1.70;;
30723;SDS011;17473;52.286;20.930;2024-03-17T11:10:29;2.07;;;1.30;;
30723;SDS011;17473;52.286;20.930;2024-03-17T11:13:01;3.97;;;1.60;;
30723;SDS011;17473;52.286;20.930;2024-03-17T11:23:41;1.60;;;1.07;;
30723;SDS011;17473;52.286;20.930;2024-03-17T11:26:07;0.83;;;0.73;;
30723;SDS011;17473;52.286;20.930;2024-03-17T11:37:06;2.37;;;1.53;;
30723;SDS011;17473;52.286;20.930;2024-03-17T11:42:24;3.50;;;1.60;;
30723;SDS011;17473;52.286;20.930;2024-03-17T11:45:12;2.10;;;1.40;;
30723;SDS011;17473;52.286;20.930;2024-03-17T11:47:41;2.03;;;1.53;;
30723;SDS011;17473;52.286;20.930;2024-03-17T11:50:09;1.87;;;1.00;;
30723;SDS011;17473;52.286;20.930;2024-03-17T11:52:38;3.93;;;1.20;;
30723;SDS011;17473;52.286;20.930;2024-03-17T11:55:14;3.83;;;1.23;;
30723;SDS011;17473;52.286;20.930;2024-03-17T11:57:44;2.37;;;1.27;;
30723;SDS011;17473;52.286;20.930;2024-03-17T12:00:23;2.27;;;1.37;;
30723;SDS011;17473;52.286;20.930;2024-03-17T12:02:50;3.43;;;1.60;;
30723;SDS011;17473;52.286;20.930;2024-03-17T12:05:16;1.30;;;0.93;;
30723;SDS011;17473;52.286;20.930;2024-03-17T12:07:42;3.03;;;1.20;;
30723;SDS011;17473;52.286;20.930;2024-03-17T12:10:12;2.20;;;1.20;;
30723;SDS011;17473;52.286;20.930;2024-03-17T12:12:46;3.20;;;1.10;;
30723;SDS011;17473;52.286;20.930;2024-03-17T12:15:16;1.23;;;0.90;;
30723;SDS011;17473;52.286;20.930;2024-03-17T12:17:45;4.80;;;1.43;;
30723;SDS011;17473;52.286;20.930;2024-03-17T12:20:18;3.00;;;0.87;;
30723;SDS011;17473;52.286;20.930;2024-03-17T12:22:46;4.47;;;1.27;;
30723;SDS011;17473;52.286;20.930;2024-03-17T12:25:17;1.83;;;1.27;;
30723;SDS011;17473;52.286;20.930;2024-03-17T12:27:46;2.07;;;1.00;;
30723;SDS011;17473;52.286;20.930;2024-03-17T12:30:14;2.17;;;1.20;;
30723;SDS011;17473;52.286;20.930;2024-03-17T12:32:42;1.33;;;1.03;;
30723;SDS011;17473;52.286;20.930;2024-03-17T12:35:12;4.10;;;1.40;;
30723;SDS011;17473;52.286;20.930;2024-03-17T12:37:43;4.30;;;2.67;;
30723;SDS011;17473;52.286;20.930;2024-03-17T12:40:20;2.40;;;1.40;;
30723;SDS011;17473;52.286;20.930;2024-03-17T12:42:50;4.73;;;1.40;;
30723;SDS011;17473;52.286;20.930;2024-03-17T12:45:20;2.57;;;1.33;;
30723;SDS011;17473;52.286;20.930;2024-03-17T12:47:48;1.67;;;1.13;;
30723;SDS011;17473;52.286;20.930;2024-03-17T12:50:16;2.63;;;1.50;;
30723;SDS011;17473;52.286;20.930;2024-03-17T12:52:51;1.13;;;1.00;;
30723;SDS011;17473;52.286;20.930;2024-03-17T12:55:19;2.43;;;1.00;;
30723;SDS011;17473;52.286;20.930;2024-03-17T12:58:05;3.67;;;1.30;;
30723;SDS011;17473;52.286;20.930;2024-03-17T13:00:58;2.50;;;1.40;;
30723;SDS011;17473;52.286;20.930;2024-03-17T13:03:25;1.73;;;1.23;;
30723;SDS011;17473;52.286;20.930;2024-03-17T13:05:54;2.83;;;1.30;;
30723;SDS011;17473;52.286;20.930;2024-03-17T13:08:20;4.53;;;2.40;;
30723;SDS011;17473;52.286;20.930;2024-03-17T13:10:46;2.43;;;1.70;;
30723;SDS011;17473;52.286;20.930;2024-03-17T13:13:13;2.47;;;1.40;;
30723;SDS011;17473;52.286;20.930;2024-03-17T13:15:41;5.33;;;1.40;;
30723;SDS011;17473;52.286;20.930;2024-03-17T13:18:08;1.97;;;1.27;;
30723;SDS011;17473;52.286;20.930;2024-03-17T13:20:35;1.70;;;1.00;;
30723;SDS011;17473;52.286;20.930;2024-03-17T13:23:01;1.97;;;1.67;;
30723;SDS011;17473;52.286;20.930;2024-03-17T13:25:29;2.17;;;1.40;;
30723;SDS011;17473;52.286;20.930;2024-03-17T13:28:00;2.53;;;1.23;;
30723;SDS011;17473;52.286;20.930;2024-03-17T13:30:26;3.13;;;1.70;;
30723;SDS011;17473;52.286;20.930;2024-03-17T13:32:54;3.90;;;1.30;;
30723;SDS011;17473;52.286;20.930;2024-03-17T13:35:25;5.60;;;1.10;;
30723;SDS011;17473;52.286;20.930;2024-03-17T13:37:57;3.00;;;1.60;;
30723;SDS011;17473;52.286;20.930;2024-03-17T13:40:28;2.27;;;1.30;;
30723;SDS011;17473;52.286;20.930;2024-03-17T13:42:54;1.40;;;1.20;;
30723;SDS011;17473;52.286;20.930;2024-03-17T13:45:22;4.27;;;1.77;;
30723;SDS011;17473;52.286;20.930;2024-03-17T13:47:54;2.87;;;1.40;;
30723;SDS011;17473;52.286;20.930;2024-03-17T13:50:24;3.30;;;1.93;;
30723;SDS011;17473;52.286;20.930;2024-03-17T13:52:51;2.80;;;1.60;;
30723;SDS011;17473;52.286;20.930;2024-03-17T13:55:18;2.83;;;1.70;;
30723;SDS011;17473;52.286;20.930;2024-03-17T13:57:52;2.17;;;1.40;;
30723;SDS011;17473;52.286;20.930;2024-03-17T14:00:24;1.53;;;1.10;;
30723;SDS011;17473;52.286;20.930;2024-03-17T14:02:55;3.47;;;1.23;;
30723;SDS011;17473;52.286;20.930;2024-03-17T14:05:22;2.13;;;1.53;;
30723;SDS011;17473;52.286;20.930;2024-03-17T14:07:51;2.30;;;1.53;;
30723;SDS011;17473;52.286;20.930;2024-03-17T14:10:23;4.70;;;2.73;;
30723;SDS011;17473;52.286;20.930;2024-03-17T14:12:51;4.23;;;2.37;;
30723;SDS011;17473;52.286;20.930;2024-03-17T14:15:18;3.30;;;2.30;;
30723;SDS011;17473;52.286;20.930;2024-03-17T14:17:45;4.57;;;1.97;;
30723;SDS011;17473;52.286;20.930;2024-03-17T14:20:14;2.57;;;2.13;;
30723;SDS011;17473;52.286;20.930;2024-03-17T14:22:43;2.57;;;2.03;;
30723;SDS011;17473;52.286;20.930;2024-03-17T14:25:18;3.33;;;2.17;;
30723;SDS011;17473;52.286;20.930;2024-03-17T14:27:46;4.00;;;2.20;;
30723;SDS011;17473;52.286;20.930;2024-03-17T14:30:17;3.73;;;2.20;;
30723;SDS011;17473;52.286;20.930;2024-03-17T14:32:44;5.17;;;2.40;;
30723;SDS011;17473;52.286;20.930;2024-03-17T14:35:14;3.60;;;1.90;;
30723;SDS011;17473;52.286;20.930;2024-03-17T14:37:42;2.77;;;1.77;;
30723;SDS011;17473;52.286;20.930;2024-03-17T14:40:13;1.97;;;1.53;;
30723;SDS011;17473;52.286;20.930;2024-03-17T14:42:50;2.63;;;1.53;;
30723;SDS011;17473;52.286;20.930;2024-03-17T14:45:17;2.90;;;1.60;;
30723;SDS011;17473;52.286;20.930;2024-03-17T14:47:44;1.53;;;1.37;;
30723;SDS011;17473;52.286;20.930;2024-03-17T14:50:10;2.23;;;1.60;;
30723;SDS011;17473;52.286;20.930;2024-03-17T14:52:41;4.03;;;1.60;;
30723;SDS011;17473;52.286;20.930;2024-03-17T14:55:08;7.07;;;2.10;;
30723;SDS011;17473;52.286;20.930;2024-03-17T14:57:36;1.83;;;1.30;;
30723;SDS011;17473;52.286;20.930;2024-03-17T15:00:07;2.63;;;1.67;;
30723;SDS011;17473;52.286;20.930;2024-03-17T15:02:49;3.47;;;1.80;;
30723;SDS011;17473;52.286;20.930;2024-03-17T15:05:17;4.00;;;1.73;;
30723;SDS011;17473;52.286;20.930;2024-03-17T15:07:44;3.30;;;1.80;;
30723;SDS011;17473;52.286;20.930;2024-03-17T15:10:10;3.40;;;1.80;;